createdAt,value
2023-02-21T00:03:15.027Z,7.97
2023-02-21T00:06:35.853Z,7.38
2023-02-21T00:09:57.444Z,8.20
2023-02-21T00:13:18.264Z,8.13
2023-02-21T00:16:39.033Z,7.57
2023-02-21T00:19:59.951Z,6.57
2023-02-21T00:23:20.825Z,6.47
2023-02-21T00:26:41.620Z,6.07
2023-02-21T00:30:02.399Z,6.50
2023-02-21T00:33:23.441Z,5.00
2023-02-21T00:36:44.255Z,5.60
2023-02-21T00:40:04.906Z,5.00
2023-02-21T00:43:25.910Z,4.50
2023-02-21T00:46:46.917Z,5.25
2023-02-21T00:50:07.717Z,7.07
2023-02-21T00:53:28.403Z,7.35
2023-02-21T00:56:48.995Z,8.23
2023-02-21T01:00:09.948Z,7.83
2023-02-21T01:03:30.743Z,8.15
2023-02-21T01:06:51.693Z,8.55
2023-02-21T01:10:12.400Z,7.78
2023-02-21T01:13:33.336Z,7.90
2023-02-21T01:16:55.606Z,8.20
2023-02-21T01:20:19.152Z,7.68
2023-02-21T01:23:40.071Z,8.38
2023-02-21T01:27:01.026Z,8.55
2023-02-21T01:30:21.977Z,8.02
2023-02-21T01:33:43.003Z,7.77
2023-02-21T01:37:03.776Z,7.57
2023-02-21T01:40:24.639Z,8.30
2023-02-21T01:43:45.963Z,7.25
2023-02-21T01:47:06.693Z,7.30
2023-02-21T01:50:47.675Z,6.53
2023-02-21T01:54:08.476Z,7.00
2023-02-21T01:57:29.078Z,5.43
2023-02-21T02:00:50.093Z,5.50
2023-02-21T02:04:10.769Z,4.95
2023-02-21T02:07:31.843Z,6.03
2023-02-21T02:10:52.687Z,5.35
2023-02-21T02:13:54.907Z,5.18
2023-02-21T02:17:08.954Z,5.25
2023-02-21T02:20:29.522Z,5.38
2023-02-21T02:24:04.807Z,7.50
2023-02-21T02:27:22.071Z,5.82
2023-02-21T02:30:43.777Z,5.07
2023-02-21T02:33:59.248Z,5.35
2023-02-21T02:37:07.234Z,5.00
2023-02-21T02:40:34.317Z,3.90
2023-02-21T02:43:44.539Z,3.92
2023-02-21T02:46:48.341Z,3.17
2023-02-21T02:49:51.662Z,2.72
2023-02-21T02:52:54.774Z,2.38
2023-02-21T02:56:00.817Z,1.60
2023-02-21T02:59:09.116Z,1.25
2023-02-21T03:02:11.263Z,1.33
2023-02-21T03:05:19.620Z,1.65
2023-02-21T03:08:27.967Z,1.80
2023-02-21T03:11:31.528Z,1.60
2023-02-21T03:14:37.279Z,1.63
2023-02-21T03:17:42.975Z,1.60
2023-02-21T03:20:46.883Z,1.13
2023-02-21T03:23:51.663Z,1.20
2023-02-21T03:26:56.520Z,1.10
2023-02-21T03:30:19.904Z,0.90
2023-02-21T03:33:24.872Z,0.95
2023-02-21T03:36:27.354Z,0.80
2023-02-21T03:39:29.742Z,0.70
2023-02-21T03:42:32.347Z,0.80
2023-02-21T03:45:35.080Z,0.90
2023-02-21T03:48:52.312Z,0.95
2023-02-21T03:52:02.452Z,0.90
2023-02-21T03:55:05.262Z,1.10
2023-02-21T03:58:07.628Z,1.07
2023-02-21T04:01:12.530Z,1.20
2023-02-21T04:04:14.952Z,0.82
2023-02-21T04:07:18.685Z,1.00
2023-02-21T04:10:21.558Z,1.00
2023-02-21T04:13:25.088Z,0.90
2023-02-21T04:16:30.103Z,1.33
2023-02-21T04:19:32.424Z,1.20
2023-02-21T04:22:34.739Z,1.10
2023-02-21T04:25:36.993Z,1.27
2023-02-21T04:28:44.966Z,1.03
2023-02-21T04:31:47.366Z,1.08
2023-02-21T04:34:51.954Z,0.85
2023-02-21T04:37:54.320Z,1.10
2023-02-21T04:40:56.509Z,1.00
2023-02-21T04:43:59.174Z,0.93
2023-02-21T04:47:01.307Z,0.90
2023-02-21T04:50:03.816Z,1.17
2023-02-21T04:53:06.104Z,1.10
2023-02-21T04:56:08.286Z,0.80
2023-02-21T04:59:10.425Z,1.27
2023-02-21T05:02:12.622Z,0.80
2023-02-21T05:05:14.890Z,0.43
2023-02-21T05:08:17.106Z,0.22
2023-02-21T05:11:20.245Z,0.20
2023-02-21T05:14:22.430Z,0.20
2023-02-21T05:17:25.575Z,0.20
2023-02-21T05:20:27.799Z,0.20
2023-02-21T05:23:35.977Z,0.43
2023-02-21T05:26:38.750Z,0.50
2023-02-21T05:29:41.431Z,0.20
2023-02-21T05:32:43.638Z,0.10
2023-02-21T05:35:47.964Z,0.50
2023-02-21T05:38:51.683Z,0.47
2023-02-21T05:41:53.909Z,0.38
2023-02-21T05:44:56.073Z,0.20
2023-02-21T05:48:00.817Z,0.30
2023-02-21T05:51:03.014Z,0.30
2023-02-21T05:54:06.196Z,0.20
2023-02-21T05:57:08.401Z,0.40
2023-02-21T06:00:16.258Z,0.30
2023-02-21T06:03:18.555Z,0.28
2023-02-21T06:06:20.820Z,0.43
2023-02-21T06:09:22.978Z,0.35
2023-02-21T06:12:25.144Z,0.30
2023-02-21T06:15:27.394Z,0.40
2023-02-21T06:18:29.689Z,0.55
2023-02-21T06:21:31.864Z,0.35
2023-02-21T06:24:34.041Z,0.22
2023-02-21T06:27:36.395Z,0.40
2023-02-21T06:30:38.690Z,0.30
2023-02-21T06:33:41.314Z,0.35
2023-02-21T06:36:43.547Z,0.35
2023-02-21T06:39:46.007Z,0.30
2023-02-21T06:42:48.204Z,0.43
2023-02-21T06:45:50.359Z,0.30
2023-02-21T06:48:52.793Z,0.30
2023-02-21T06:51:55.283Z,0.60
2023-02-21T06:54:59.386Z,0.30
2023-02-21T06:58:02.237Z,0.47
2023-02-21T07:01:05.472Z,0.50
2023-02-21T07:04:07.784Z,0.30
2023-02-21T07:07:11.133Z,0.40
2023-02-21T07:10:13.374Z,0.20
2023-02-21T07:13:16.006Z,0.68
2023-02-21T07:16:18.990Z,0.90
2023-02-21T07:19:21.320Z,0.55
2023-02-21T07:22:26.240Z,0.50
2023-02-21T07:25:28.517Z,0.55
2023-02-21T07:28:30.765Z,0.45
2023-02-21T07:31:33.598Z,0.60
2023-02-21T07:34:35.891Z,0.50
2023-02-21T07:37:38.642Z,0.57
2023-02-21T07:40:40.865Z,0.40
2023-02-21T07:43:43.478Z,0.35
2023-02-21T07:46:48.889Z,0.70
2023-02-21T07:49:54.430Z,0.47
2023-02-21T07:53:00.953Z,0.32
2023-02-21T07:56:06.705Z,0.40
2023-02-21T07:59:08.914Z,0.80
2023-02-21T08:02:14.585Z,0.37
2023-02-21T08:05:17.699Z,0.75
2023-02-21T08:08:19.885Z,0.40
2023-02-21T08:11:22.429Z,0.40
2023-02-21T08:14:25.417Z,0.38
2023-02-21T08:17:28.985Z,0.80
2023-02-21T08:20:31.299Z,0.40
2023-02-21T08:23:33.452Z,0.68
2023-02-21T08:26:35.970Z,0.60
2023-02-21T08:29:38.178Z,0.30
2023-02-21T08:32:40.690Z,0.40
2023-02-21T08:35:42.933Z,0.70
2023-02-21T08:38:45.221Z,0.70
2023-02-21T08:41:48.877Z,0.50
2023-02-21T08:44:51.243Z,0.85
2023-02-21T08:47:53.841Z,0.67
2023-02-21T08:50:56.171Z,0.63
2023-02-21T08:53:58.720Z,0.80
2023-02-21T08:57:00.953Z,0.50
2023-02-21T09:00:06.126Z,0.70
2023-02-21T09:03:08.293Z,0.60
2023-02-21T09:06:10.785Z,0.65
2023-02-21T09:09:13.011Z,0.75
2023-02-21T09:12:26.904Z,0.70
2023-02-21T09:15:30.364Z,0.77
2023-02-21T09:18:40.635Z,0.87
2023-02-21T09:21:47.765Z,0.30
2023-02-21T09:24:56.090Z,0.60
2023-02-21T09:28:02.407Z,0.50
2023-02-21T09:31:05.108Z,0.40
2023-02-21T09:34:07.705Z,0.53
2023-02-21T09:37:09.956Z,0.45
2023-02-21T09:40:24.367Z,0.38
2023-02-21T09:43:33.398Z,0.60
2023-02-21T09:46:41.664Z,0.47
2023-02-21T09:49:44.814Z,0.30
2023-02-21T09:52:50.220Z,0.43
2023-02-21T09:55:54.655Z,0.57
2023-02-21T09:59:06.601Z,0.75
2023-02-21T10:02:16.205Z,0.50
2023-02-21T10:05:26.818Z,0.80
2023-02-21T10:08:38.353Z,0.70
2023-02-21T10:11:45.824Z,0.40
2023-02-21T10:14:52.840Z,0.40
2023-02-21T10:18:07.533Z,0.73
2023-02-21T10:21:24.507Z,0.33
2023-02-21T10:24:27.821Z,0.30
2023-02-21T10:27:31.880Z,0.82
2023-02-21T10:30:36.081Z,0.50
2023-02-21T10:33:38.992Z,0.45
2023-02-21T10:36:42.702Z,0.60
2023-02-21T10:39:49.544Z,0.35
2023-02-21T10:42:57.888Z,0.43
2023-02-21T10:46:04.745Z,0.30
2023-02-21T10:49:29.371Z,0.57
2023-02-21T10:52:40.659Z,0.80
2023-02-21T10:55:44.759Z,0.40
2023-02-21T10:58:49.504Z,0.40
2023-02-21T11:01:52.926Z,0.40
2023-02-21T11:04:56.667Z,0.50
2023-02-21T11:08:00.961Z,0.40
2023-02-21T11:11:04.398Z,0.55
2023-02-21T11:14:27.108Z,0.90
2023-02-21T11:17:32.232Z,0.70
2023-02-21T11:20:34.568Z,0.50
2023-02-21T11:23:38.421Z,0.60
2023-02-21T11:26:51.557Z,0.43
2023-02-21T11:29:58.260Z,0.70
2023-02-21T11:33:02.117Z,0.60
2023-02-21T11:36:15.151Z,0.50
2023-02-21T11:39:19.018Z,0.80
2023-02-21T11:42:31.973Z,0.80
2023-02-21T11:45:35.080Z,0.60
2023-02-21T11:48:54.672Z,0.80
2023-02-21T11:52:05.139Z,0.63
2023-02-21T11:55:19.657Z,0.70
2023-02-21T11:58:24.986Z,0.60
2023-02-21T12:01:34.857Z,0.55
2023-02-21T12:04:40.643Z,0.57
2023-02-21T12:07:43.754Z,0.70
2023-02-21T12:11:05.315Z,0.77
2023-02-21T12:14:27.658Z,0.70
2023-02-21T12:17:32.669Z,0.80
2023-02-21T12:20:46.310Z,0.68
2023-02-21T12:23:57.774Z,0.60
2023-02-21T12:26:59.980Z,0.90
2023-02-21T12:30:02.805Z,0.80
2023-02-21T12:33:17.445Z,0.70
2023-02-21T12:36:22.929Z,0.70
2023-02-21T12:39:34.478Z,1.00
2023-02-21T12:42:52.282Z,0.60
2023-02-21T12:46:25.321Z,0.70
2023-02-21T12:49:30.708Z,0.73
2023-02-21T12:52:49.061Z,0.88
2023-02-21T12:55:59.516Z,0.85
2023-02-21T12:59:05.015Z,0.73
2023-02-21T13:02:16.749Z,0.88
2023-02-21T13:05:42.616Z,1.10
2023-02-21T13:08:54.333Z,0.70
2023-02-21T13:11:56.661Z,1.00
2023-02-21T13:15:10.031Z,0.57
2023-02-21T13:18:32.202Z,0.55
2023-02-21T13:21:40.430Z,0.80
2023-02-21T13:24:58.630Z,0.70
2023-02-21T13:28:13.172Z,0.60
2023-02-21T13:31:20.709Z,0.60
2023-02-21T13:34:25.632Z,0.60
2023-02-21T13:37:31.995Z,0.68
2023-02-21T13:40:34.272Z,0.80
2023-02-21T13:43:37.444Z,0.55
2023-02-21T13:46:40.806Z,0.60
2023-02-21T13:49:48.497Z,0.60
2023-02-21T13:52:52.846Z,0.80
2023-02-21T13:56:07.241Z,0.60
2023-02-21T13:59:33.125Z,0.40
2023-02-21T14:02:35.295Z,0.70
2023-02-21T14:05:46.793Z,0.50
2023-02-21T14:08:49.769Z,0.40
2023-02-21T14:11:53.008Z,0.40
2023-02-21T14:15:06.767Z,0.75
2023-02-21T14:18:27.753Z,0.40
2023-02-21T14:21:46.871Z,0.50
2023-02-21T14:24:50.587Z,0.70
2023-02-21T14:27:55.575Z,0.50
2023-02-21T14:31:03.996Z,0.55
2023-02-21T14:34:06.410Z,0.50
2023-02-21T14:37:17.954Z,0.50
2023-02-21T14:40:33.700Z,0.80
2023-02-21T14:43:56.136Z,0.70
2023-02-21T14:47:25.956Z,0.60
2023-02-21T14:50:47.228Z,0.67
2023-02-21T14:54:04.821Z,0.60
2023-02-21T14:57:26.074Z,0.40
2023-02-21T15:00:31.319Z,0.50
2023-02-21T15:03:37.255Z,0.55
2023-02-21T15:06:41.796Z,0.43
2023-02-21T15:09:44.177Z,0.32
2023-02-21T15:12:48.629Z,0.40
2023-02-21T15:15:57.027Z,0.65
2023-02-21T15:19:01.645Z,0.60
2023-02-21T15:22:16.047Z,0.50
2023-02-21T15:25:21.003Z,0.30
2023-02-21T15:28:27.187Z,0.43
2023-02-21T15:31:32.220Z,0.60
2023-02-21T15:34:44.984Z,0.43
2023-02-21T15:37:47.259Z,0.40
2023-02-21T15:40:51.141Z,0.40
2023-02-21T15:43:59.539Z,0.50
2023-02-21T15:47:03.820Z,0.60
2023-02-21T15:50:06.160Z,0.40
2023-02-21T15:53:16.311Z,0.60
2023-02-21T15:56:23.941Z,0.50
2023-02-21T15:59:27.096Z,0.47
2023-02-21T16:02:32.252Z,0.30
2023-02-21T16:05:36.180Z,0.60
2023-02-21T16:08:59.212Z,0.40
2023-02-21T16:12:01.956Z,0.77
2023-02-21T16:15:08.283Z,0.50
2023-02-21T16:18:11.799Z,0.40
2023-02-21T16:21:22.201Z,0.45
2023-02-21T16:24:31.770Z,0.70
2023-02-21T16:27:33.964Z,0.28
2023-02-21T16:30:39.233Z,0.50
2023-02-21T16:33:41.567Z,0.50
2023-02-21T16:36:44.081Z,0.43
2023-02-21T16:39:46.574Z,0.43
2023-02-21T16:42:48.980Z,0.43
2023-02-21T16:45:52.266Z,0.55
2023-02-21T16:48:55.035Z,0.73
2023-02-21T16:51:57.393Z,0.47
2023-02-21T16:55:00.216Z,0.40
2023-02-21T16:58:03.440Z,0.70
2023-02-21T17:01:08.847Z,0.60
2023-02-21T17:04:23.068Z,0.65
2023-02-21T17:07:25.763Z,0.80
2023-02-21T17:10:28.137Z,0.70
2023-02-21T17:13:30.286Z,0.70
2023-02-21T17:16:32.484Z,0.70
2023-02-21T17:19:34.861Z,0.88
2023-02-21T17:22:37.079Z,0.57
2023-02-21T17:25:39.373Z,0.60
2023-02-21T17:28:41.660Z,0.60
2023-02-21T17:31:44.134Z,0.73
2023-02-21T17:34:46.298Z,0.90
2023-02-21T17:37:49.719Z,0.95
2023-02-21T17:40:53.603Z,0.73
2023-02-21T17:43:56.150Z,0.90
2023-02-21T17:46:58.460Z,0.90
2023-02-21T17:50:02.863Z,1.20
2023-02-21T17:53:05.417Z,1.00
2023-02-21T17:56:07.743Z,1.13
2023-02-21T17:59:10.039Z,0.93
2023-02-21T18:02:13.308Z,0.60
2023-02-21T18:05:15.540Z,0.90
2023-02-21T18:08:18.395Z,1.10
2023-02-21T18:11:21.289Z,1.33
2023-02-21T18:14:25.505Z,1.00
2023-02-21T18:17:27.842Z,1.00
2023-02-21T18:20:30.158Z,1.40
2023-02-21T18:23:33.688Z,1.00
2023-02-21T18:26:36.145Z,0.80
2023-02-21T18:29:38.447Z,0.85
2023-02-21T18:32:40.785Z,0.70
2023-02-21T18:35:43.220Z,1.10
2023-02-21T18:38:45.569Z,1.00
2023-02-21T18:41:48.331Z,0.80
2023-02-21T18:44:51.208Z,1.15
2023-02-21T18:47:53.541Z,0.80
2023-02-21T18:50:55.910Z,1.00
2023-02-21T18:53:58.323Z,0.52
2023-02-21T18:57:02.042Z,0.77
2023-02-21T19:00:06.488Z,0.50
2023-02-21T19:03:09.471Z,0.50
2023-02-21T19:06:13.814Z,1.08
2023-02-21T19:09:16.254Z,0.70
2023-02-21T19:12:18.718Z,0.50
2023-02-21T19:15:21.549Z,0.70
2023-02-21T19:18:23.841Z,0.50
2023-02-21T19:21:26.875Z,0.77
2023-02-21T19:24:29.323Z,0.50
2023-02-21T19:27:31.803Z,0.70
2023-02-21T19:30:36.611Z,0.82
2023-02-21T19:33:40.227Z,0.98
2023-02-21T19:36:42.714Z,0.75
2023-02-21T19:39:45.248Z,0.70
2023-02-21T19:42:48.630Z,0.60
2023-02-21T19:45:52.793Z,0.75
2023-02-21T19:48:56.620Z,0.52
2023-02-21T19:52:00.127Z,0.80
2023-02-21T19:55:02.995Z,0.70
2023-02-21T19:58:08.508Z,0.53
2023-02-21T20:01:11.217Z,1.10
2023-02-21T20:04:13.804Z,0.90
2023-02-21T20:07:17.161Z,0.65
2023-02-21T20:10:25.205Z,0.75
2023-02-21T20:13:27.622Z,0.90
2023-02-21T20:16:33.629Z,0.63
2023-02-21T20:19:35.991Z,0.70
2023-02-21T20:22:38.744Z,0.90
2023-02-21T20:25:41.141Z,0.80
2023-02-21T20:28:43.507Z,0.80
2023-02-21T20:31:45.941Z,0.77
2023-02-21T20:34:48.620Z,0.93
2023-02-21T20:37:51.112Z,0.88
2023-02-21T20:40:53.377Z,1.17
2023-02-21T20:43:55.838Z,0.90
2023-02-21T20:46:58.253Z,1.15
2023-02-21T20:50:00.765Z,0.65
2023-02-21T20:53:03.232Z,0.85
2023-02-21T20:56:05.678Z,1.08
2023-02-21T20:59:10.085Z,0.70
2023-02-21T21:02:12.835Z,0.57
2023-02-21T21:05:16.862Z,1.10
2023-02-21T21:08:19.071Z,1.00
2023-02-21T21:11:22.011Z,0.80
2023-02-21T21:14:24.247Z,0.90
2023-02-21T21:17:26.584Z,0.57
2023-02-21T21:20:28.982Z,0.73
2023-02-21T21:23:31.420Z,0.77
2023-02-21T21:26:34.141Z,0.55
2023-02-21T21:29:37.298Z,0.90
2023-02-21T21:32:40.217Z,0.90
2023-02-21T21:35:42.578Z,0.90
2023-02-21T21:38:44.899Z,1.00
2023-02-21T21:41:49.366Z,0.70
2023-02-21T21:44:53.744Z,0.90
2023-02-21T21:47:59.975Z,0.73
2023-02-21T21:51:03.727Z,1.00
2023-02-21T21:54:06.064Z,0.90
2023-02-21T21:57:08.246Z,1.15
2023-02-21T22:00:22.101Z,0.63
2023-02-21T22:03:24.361Z,1.65
2023-02-21T22:06:26.610Z,1.20
2023-02-21T22:09:28.808Z,0.77
2023-02-21T22:12:31.000Z,1.38
2023-02-21T22:15:33.176Z,0.90
2023-02-21T22:18:35.353Z,0.90
2023-02-21T22:21:37.643Z,0.77
2023-02-21T22:24:40.653Z,0.75
2023-02-21T22:27:42.883Z,0.90
2023-02-21T22:30:46.182Z,0.57
2023-02-21T22:33:48.415Z,0.75
2023-02-21T22:36:51.574Z,1.13
2023-02-21T22:39:53.927Z,0.80
2023-02-21T22:43:00.497Z,1.00
2023-02-21T22:46:05.770Z,0.60
2023-02-21T22:49:08.118Z,0.73
2023-02-21T22:52:10.874Z,0.63
2023-02-21T22:55:14.383Z,0.90
2023-02-21T22:58:20.419Z,0.85
2023-02-21T23:01:26.529Z,1.00
2023-02-21T23:04:28.825Z,1.17
2023-02-21T23:07:31.377Z,0.73
2023-02-21T23:10:34.577Z,0.45
2023-02-21T23:13:36.772Z,0.55
2023-02-21T23:16:39.128Z,0.83
2023-02-21T23:19:41.576Z,0.77
2023-02-21T23:22:45.054Z,0.90
2023-02-21T23:25:47.240Z,0.93
2023-02-21T23:28:49.992Z,0.85
2023-02-21T23:31:54.230Z,0.80
2023-02-21T23:34:56.533Z,0.73
2023-02-21T23:38:00.178Z,0.85
2023-02-21T23:41:02.345Z,1.00
2023-02-21T23:44:05.324Z,0.90
2023-02-21T23:47:07.796Z,0.80
2023-02-21T23:50:17.326Z,0.77
2023-02-21T23:53:21.158Z,1.10
2023-02-21T23:56:23.477Z,1.02
2023-02-21T23:59:26.979Z,1.08
